TimePDT,TemperatureF,Dew PointF,Humidity,Sea Level PressureIn,VisibilityMPH,Wind Direction,Wind SpeedMPH,Gust SpeedMPH,PrecipitationIn,Events,Conditions,WindDirDegrees,DateUTC
12:03 AM,59.0,51.8,77,30.15,10.0,North,6.9,-,N/A,,Overcast,360,2012-10-02 07:03:00
12:43 AM,59.0,50.0,72,30.17,10.0,North,5.8,-,N/A,,Overcast,10,2012-10-02 07:43:00
12:50 AM,59.0,50.0,72,30.17,10.0,North,6.9,-,N/A,,Light Drizzle,10,2012-10-02 07:50:00
12:58 AM,58.1,50.2,75,30.19,10.0,NNE,5.8,-,0.00,,Light Drizzle,20,2012-10-02 07:58:00
1:03 AM,57.2,50.0,77,30.18,10.0,North,4.6,-,N/A,,Overcast,360,2012-10-02 08:03:00
1:58 AM,57.7,48.6,71,30.19,10.0,North,1.2,-,0.00,,Overcast,10,2012-10-02 08:58:00
2:33 AM,57.2,48.2,72,30.18,10.0,North,2.3,-,N/A,,Overcast,360,2012-10-02 09:33:00
2:38 AM,57.2,48.2,72,30.18,10.0,North,2.3,-,N/A,,Overcast,10,2012-10-02 09:38:00
2:58 AM,57.4,47.8,70,30.19,10.0,North,4.6,-,N/A,,Overcast,10,2012-10-02 09:58:00
3:58 AM,55.9,47.7,74,30.19,10.0,NNW,5.8,-,N/A,,Overcast,340,2012-10-02 10:58:00
4:58 AM,54.5,50.7,87,30.20,10.0,NW,4.6,-,N/A,,Mostly Cloudy,320,2012-10-02 11:58:00
5:58 AM,52.9,49.3,88,30.20,10.0,NNE,3.5,-,N/A,,Mostly Cloudy,20,2012-10-02 12:58:00
6:58 AM,51.4,47.5,86,30.19,10.0,North,3.5,-,N/A,,Mostly Cloudy,10,2012-10-02 13:58:00
7:58 AM,52.9,47.1,81,30.21,10.0,NNE,1.2,-,N/A,,Overcast,30,2012-10-02 14:58:00
8:58 AM,54.9,44.8,69,30.22,10.0,North,5.8,-,N/A,,Overcast,10,2012-10-02 15:58:00
9:58 AM,56.3,40.8,56,30.22,10.0,NE,4.6,-,N/A,,Overcast,40,2012-10-02 16:58:00
10:58 AM,58.5,38.3,47,30.21,10.0,Variable,3.5,-,N/A,,Overcast,0,2012-10-02 17:58:00
11:58 AM,60.6,39.0,45,30.21,10.0,North,5.8,-,N/A,,Overcast,10,2012-10-02 18:58:00
12:58 PM,60.8,42.1,50,30.20,10.0,NNW,5.8,-,N/A,,Overcast,330,2012-10-02 19:58:00
1:58 PM,61.2,41.4,48,30.18,10.0,North,10.4,-,N/A,,Scattered Clouds,350,2012-10-02 20:58:00
2:58 PM,63.3,38.8,40,30.18,10.0,NW,5.8,-,N/A,,Clear,320,2012-10-02 21:58:00
3:58 PM,63.7,39.6,41,30.18,10.0,NNW,8.1,-,N/A,,Clear,330,2012-10-02 22:58:00
4:58 PM,61.5,37.4,41,30.19,10.0,NNE,9.2,-,N/A,,Mostly Cloudy,30,2012-10-02 23:58:00
5:58 PM,57.7,36.5,45,30.20,10.0,NNE,10.4,-,N/A,,Scattered Clouds,20,2012-10-03 00:58:00
6:58 PM,55.2,37.0,50,30.21,10.0,NNE,9.2,-,N/A,,Clear,20,2012-10-03 01:58:00
7:58 PM,54.0,39.2,57,30.22,10.0,NNE,8.1,-,N/A,,Clear,20,2012-10-03 02:58:00
8:58 PM,53.6,38.7,57,30.24,10.0,NNE,10.4,-,N/A,,Clear,20,2012-10-03 03:58:00
9:58 PM,52.3,39.6,62,30.25,10.0,Variable,5.8,-,N/A,,Clear,0,2012-10-03 04:58:00
10:58 PM,51.4,40.1,65,30.27,10.0,Variable,5.8,-,N/A,,Clear,0,2012-10-03 05:58:00
11:58 PM,51.8,40.3,65,30.28,10.0,Variable,3.5,-,N/A,,Clear,0,2012-10-03 06:58:00